sensor_id;sensor_type;location;lat;lon;timestamp;pressure;altitude;pressure_sealevel;temperature;humidity
71384;BME280;67558;52.166;5.004;2023-02-12T00:01:10;103962.63;;;10.24;66.57
71384;BME280;67558;52.166;5.004;2023-02-12T00:03:36;103957.28;;;10.24;66.59
71384;BME280;67558;52.166;5.004;2023-02-12T00:06:02;103948.78;;;10.21;66.36
71384;BME280;67558;52.166;5.004;2023-02-12T00:08:28;103942.78;;;10.19;66.47
71384;BME280;67558;52.166;5.004;2023-02-12T00:10:56;103946.59;;;10.24;66.46
71384;BME280;67558;52.166;5.004;2023-02-12T00:13:22;103944.09;;;10.23;66.41
71384;BME280;67558;52.166;5.004;2023-02-12T00:15:48;103950.25;;;10.23;66.38
71384;BME280;67558;52.166;5.004;2023-02-12T00:18:14;103945.94;;;10.22;66.48
71384;BME280;67558;52.166;5.004;2023-02-12T00:20:39;103942.97;;;10.17;66.38
71384;BME280;67558;52.166;5.004;2023-02-12T00:23:06;103949.63;;;10.21;66.43
71384;BME280;67558;52.166;5.004;2023-02-12T00:25:32;103957.28;;;10.24;66.44
71384;BME280;67558;52.166;5.004;2023-02-12T00:27:57;103950.00;;;10.18;66.48
71384;BME280;67558;52.166;5.004;2023-02-12T00:30:23;103950.00;;;10.18;66.48
71384;BME280;67558;52.166;5.004;2023-02-12T00:32:51;103955.34;;;10.18;66.49
71384;BME280;67558;52.166;5.004;2023-02-12T00:35:16;103955.72;;;10.15;66.53
71384;BME280;67558;52.166;5.004;2023-02-12T00:37:42;103945.03;;;10.15;66.53
71384;BME280;67558;52.166;5.004;2023-02-12T00:40:08;103954.69;;;10.16;66.64
71384;BME280;67558;52.166;5.004;2023-02-12T00:42:33;103941.50;;;10.15;66.48
71384;BME280;67558;52.166;5.004;2023-02-12T00:44:58;103946.50;;;10.18;66.51
71384;BME280;67558;52.166;5.004;2023-02-12T00:47:24;103942.16;;;10.17;66.40
71384;BME280;67558;52.166;5.004;2023-02-12T00:49:49;103945.03;;;10.15;66.56
71384;BME280;67558;52.166;5.004;2023-02-12T00:52:15;103937.00;;;10.15;66.48
71384;BME280;67558;52.166;5.004;2023-02-12T00:54:40;103934.34;;;10.15;66.59
71384;BME280;67558;52.166;5.004;2023-02-12T00:57:05;103932.84;;;10.13;66.58
71384;BME280;67558;52.166;5.004;2023-02-12T00:59:31;103932.84;;;10.13;66.56
71384;BME280;67558;52.166;5.004;2023-02-12T01:01:59;103940.69;;;10.14;66.42
71384;BME280;67558;52.166;5.004;2023-02-12T01:04:24;103935.34;;;10.14;66.53
71384;BME280;67558;52.166;5.004;2023-02-12T01:06:50;103940.84;;;10.13;66.51
71384;BME280;67558;52.166;5.004;2023-02-12T01:09:15;103939.38;;;10.10;66.63
71384;BME280;67558;52.166;5.004;2023-02-12T01:11:41;103944.38;;;10.13;66.76
71384;BME280;67558;52.166;5.004;2023-02-12T01:14:06;103942.06;;;10.10;66.69
71384;BME280;67558;52.166;5.004;2023-02-12T01:16:33;103941.41;;;10.08;66.59
71384;BME280;67558;52.166;5.004;2023-02-12T01:19:02;103929.44;;;10.04;66.58
71384;BME280;67558;52.166;5.004;2023-02-12T01:21:31;103942.63;;;10.05;66.64
71384;BME280;67558;52.166;5.004;2023-02-12T01:23:57;103940.22;;;10.11;66.55
71384;BME280;67558;52.166;5.004;2023-02-12T01:26:23;103939.38;;;10.10;66.58
71384;BME280;67558;52.166;5.004;2023-02-12T01:28:54;103937.09;;;10.07;66.58
71384;BME280;67558;52.166;5.004;2023-02-12T01:31:22;103940.59;;;10.08;66.55
71384;BME280;67558;52.166;5.004;2023-02-12T01:33:51;103945.13;;;10.07;66.69
71384;BME280;67558;52.166;5.004;2023-02-12T01:36:17;103944.09;;;10.08;66.61
71384;BME280;67558;52.166;5.004;2023-02-12T01:38:43;103942.44;;;10.07;66.73
71384;BME280;67558;52.166;5.004;2023-02-12T01:43:36;103943.81;;;10.03;66.79
71384;BME280;67558;52.166;5.004;2023-02-12T01:46:03;103943.19;;;10.01;66.67
71384;BME280;67558;52.166;5.004;2023-02-12T01:48:36;103945.84;;;10.01;66.74
71384;BME280;67558;52.166;5.004;2023-02-12T01:51:03;103945.38;;;9.97;66.70
71384;BME280;67558;52.166;5.004;2023-02-12T01:53:35;103946.22;;;9.98;66.64
71384;BME280;67558;52.166;5.004;2023-02-12T01:56:02;103939.03;;;9.98;66.82
71384;BME280;67558;52.166;5.004;2023-02-12T01:58:35;103945.38;;;9.97;66.74
71384;BME280;67558;52.166;5.004;2023-02-12T02:01:03;103948.53;;;10.01;66.50
71384;BME280;67558;52.166;5.004;2023-02-12T02:03:33;103941.31;;;10.01;66.77
71384;BME280;67558;52.166;5.004;2023-02-12T02:06:11;103939.69;;;10.00;66.62
71384;BME280;67558;52.166;5.004;2023-02-12T02:08:39;103937.44;;;10.04;66.65
71384;BME280;67558;52.166;5.004;2023-02-12T02:11:05;103935.63;;;10.04;66.56
71384;BME280;67558;52.166;5.004;2023-02-12T02:13:51;103932.97;;;10.04;66.51
71384;BME280;67558;52.166;5.004;2023-02-12T02:16:36;103938.09;;;10.06;66.57
71384;BME280;67558;52.166;5.004;2023-02-12T02:19:23;103936.38;;;9.98;66.70
71384;BME280;67558;52.166;5.004;2023-02-12T02:22:19;103945.22;;;9.99;66.78
71384;BME280;67558;52.166;5.004;2023-02-12T02:28:16;103942.88;;;9.96;66.72
71384;BME280;67558;52.166;5.004;2023-02-12T02:33:08;103944.94;;;9.94;66.76
71384;BME280;67558;52.166;5.004;2023-02-12T02:38:45;103933.78;;;9.90;67.03
71384;BME280;67558;52.166;5.004;2023-02-12T02:41:23;103931.44;;;9.87;66.83
71384;BME280;67558;52.166;5.004;2023-02-12T02:43:52;103929.63;;;9.88;66.89
71384;BME280;67558;52.166;5.004;2023-02-12T02:46:33;103930.63;;;9.87;67.01
71384;BME280;67558;52.166;5.004;2023-02-12T02:49:10;103921.31;;;9.82;67.20
71384;BME280;67558;52.166;5.004;2023-02-12T02:51:44;103923.63;;;9.86;67.21
71384;BME280;67558;52.166;5.004;2023-02-12T02:54:15;103920.31;;;9.83;67.12
71384;BME280;67558;52.166;5.004;2023-02-12T02:56:46;103921.13;;;9.84;67.08
71384;BME280;67558;52.166;5.004;2023-02-12T02:59:16;103918.47;;;9.84;66.99
71384;BME280;67558;52.166;5.004;2023-02-12T03:01:46;103919.28;;;9.84;67.13
71384;BME280;67558;52.166;5.004;2023-02-12T03:04:23;103916.81;;;9.83;66.90
71384;BME280;67558;52.166;5.004;2023-02-12T03:06:58;103927.59;;;9.90;66.71
71384;BME280;67558;52.166;5.004;2023-02-12T03:11:58;103927.41;;;9.91;66.72
71384;BME280;67558;52.166;5.004;2023-02-12T03:14:28;103928.44;;;9.90;66.73
71384;BME280;67558;52.166;5.004;2023-02-12T03:17:03;103923.91;;;9.91;66.99
71384;BME280;67558;52.166;5.004;2023-02-12T03:19:35;103916.69;;;9.91;66.82
71384;BME280;67558;52.166;5.004;2023-02-12T03:22:05;103909.53;;;9.92;67.02
71384;BME280;67558;52.166;5.004;2023-02-12T03:24:40;103911.56;;;9.90;66.79
71384;BME280;67558;52.166;5.004;2023-02-12T03:27:20;103907.84;;;9.91;66.84
71384;BME280;67558;52.166;5.004;2023-02-12T03:29:47;103911.19;;;9.93;66.80
71384;BME280;67558;52.166;5.004;2023-02-12T03:37:45;103903.88;;;9.87;66.93
71384;BME280;67558;52.166;5.004;2023-02-12T03:40:27;103913.84;;;9.93;66.90
71384;BME280;67558;52.166;5.004;2023-02-12T03:53:11;103915.41;;;9.87;66.82
71384;BME280;67558;52.166;5.004;2023-02-12T03:55:41;103924.94;;;9.90;66.88
71384;BME280;67558;52.166;5.004;2023-02-12T03:58:09;103922.25;;;9.90;66.76
71384;BME280;67558;52.166;5.004;2023-02-12T04:00:37;103923.91;;;9.91;66.91
71384;BME280;67558;52.166;5.004;2023-02-12T04:03:04;103926.56;;;9.91;66.90
71384;BME280;67558;52.166;5.004;2023-02-12T04:05:29;103930.94;;;9.92;66.70
71384;BME280;67558;52.166;5.004;2023-02-12T04:07:56;103926.22;;;9.94;66.65
71384;BME280;67558;52.166;5.004;2023-02-12T04:10:52;103933.78;;;9.90;66.84
71384;BME280;67558;52.166;5.004;2023-02-12T04:14:06;103935.63;;;9.90;66.77
71384;BME280;67558;52.166;5.004;2023-02-12T04:19:43;103933.78;;;9.90;66.68
71384;BME280;67558;52.166;5.004;2023-02-12T04:25:36;103940.97;;;9.90;66.68
71384;BME280;67558;52.166;5.004;2023-02-12T04:31:12;103949.44;;;9.93;66.45
71384;BME280;67558;52.166;5.004;2023-02-12T04:33:49;103962.81;;;9.93;66.37
71384;BME280;67558;52.166;5.004;2023-02-12T04:36:23;103952.66;;;9.89;66.28
71384;BME280;67558;52.166;5.004;2023-02-12T04:39:02;103956.81;;;9.91;66.31
71384;BME280;67558;52.166;5.004;2023-02-12T04:41:29;103952.03;;;9.87;66.51
71384;BME280;67558;52.166;5.004;2023-02-12T04:43:55;103963.84;;;9.92;66.38
71384;BME280;67558;52.166;5.004;2023-02-12T04:46:23;103966.69;;;9.91;66.27
71384;BME280;67558;52.166;5.004;2023-02-12T04:48:57;103958.00;;;9.89;66.16
71384;BME280;67558;52.166;5.004;2023-02-12T04:51:23;103955.16;;;9.90;66.09
71384;BME280;67558;52.166;5.004;2023-02-12T04:53:49;103958.50;;;9.92;65.99
71384;BME280;67558;52.166;5.004;2023-02-12T04:56:14;103961.34;;;9.91;66.14
71384;BME280;67558;52.166;5.004;2023-02-12T04:58:40;103966.13;;;9.95;66.03
71384;BME280;67558;52.166;5.004;2023-02-12T05:01:06;103969.00;;;9.94;66.15
71384;BME280;67558;52.166;5.004;2023-02-12T05:03:33;103953.31;;;9.91;66.09
71384;BME280;67558;52.166;5.004;2023-02-12T05:06:06;103966.84;;;9.89;66.12
71384;BME280;67558;52.166;5.004;2023-02-12T05:08:32;103965.03;;;9.90;66.18
71384;BME280;67558;52.166;5.004;2023-02-12T05:11:05;103958.41;;;9.86;66.08
71384;BME280;67558;52.166;5.004;2023-02-12T05:13:31;103967.88;;;9.88;65.97
71384;BME280;67558;52.166;5.004;2023-02-12T05:15:57;103963.38;;;9.89;66.11
71384;BME280;67558;52.166;5.004;2023-02-12T05:18:25;103965.03;;;9.90;66.07
71384;BME280;67558;52.166;5.004;2023-02-12T05:20:58;103955.91;;;9.84;66.02
71384;BME280;67558;52.166;5.004;2023-02-12T05:23:31;103961.25;;;9.84;66.13
71384;BME280;67558;52.166;5.004;2023-02-12T05:25:58;103956.72;;;9.84;66.12
71384;BME280;67558;52.166;5.004;2023-02-12T05:28:24;103960.22;;;9.85;65.93
71384;BME280;67558;52.166;5.004;2023-02-12T05:30:50;103963.75;;;9.86;66.08
71384;BME280;67558;52.166;5.004;2023-02-12T05:33:15;103963.09;;;9.83;65.95
71384;BME280;67558;52.166;5.004;2023-02-12T05:35:40;103967.41;;;9.84;66.02
71384;BME280;67558;52.166;5.004;2023-02-12T05:38:06;103969.25;;;9.84;65.90
71384;BME280;67558;52.166;5.004;2023-02-12T05:40:31;103961.25;;;9.84;65.85
71384;BME280;67558;52.166;5.004;2023-02-12T05:42:56;103967.41;;;9.84;65.65
71384;BME280;67558;52.166;5.004;2023-02-12T05:45:22;103964.09;;;9.82;65.80
71384;BME280;67558;52.166;5.004;2023-02-12T05:47:55;103968.06;;;9.87;65.70
71384;BME280;67558;52.166;5.004;2023-02-12T05:50:20;103971.94;;;9.84;65.72
71384;BME280;67558;52.166;5.004;2023-02-12T05:52:46;103970.09;;;9.84;65.78
71384;BME280;67558;52.166;5.004;2023-02-12T05:55:11;103966.59;;;9.84;65.70
71384;BME280;67558;52.166;5.004;2023-02-12T05:57:37;103967.41;;;9.84;65.40
71384;BME280;67558;52.166;5.004;2023-02-12T06:00:04;103970.28;;;9.83;65.78
71384;BME280;67558;52.166;5.004;2023-02-12T06:02:30;103970.28;;;9.83;65.54
71384;BME280;67558;52.166;5.004;2023-02-12T06:04:57;103970.47;;;9.81;65.69
71384;BME280;67558;52.166;5.004;2023-02-12T06:07:22;103974.78;;;9.82;65.67
71384;BME280;67558;52.166;5.004;2023-02-12T06:09:47;103970.81;;;9.78;65.74
71384;BME280;67558;52.166;5.004;2023-02-12T06:12:13;103963.00;;;9.77;65.76
71384;BME280;67558;52.166;5.004;2023-02-12T06:14:39;103960.66;;;9.74;65.75
71384;BME280;67558;52.166;5.004;2023-02-12T06:17:05;103978.84;;;9.78;65.81
71384;BME280;67558;52.166;5.004;2023-02-12T06:19:30;103977.19;;;9.77;65.86
71384;BME280;67558;52.166;5.004;2023-02-12T06:21:55;103986.03;;;9.78;65.83
71384;BME280;67558;52.166;5.004;2023-02-12T06:24:21;103972.66;;;9.78;65.87
71384;BME280;67558;52.166;5.004;2023-02-12T06:26:48;103978.19;;;9.76;65.76
71384;BME280;67558;52.166;5.004;2023-02-12T06:29:13;103978.38;;;9.75;65.79
71384;BME280;67558;52.166;5.004;2023-02-12T06:31:39;103971.03;;;9.77;65.78
71384;BME280;67558;52.166;5.004;2023-02-12T06:34:07;103970.16;;;9.76;65.73
71384;BME280;67558;52.166;5.004;2023-02-12T06:36:34;103978.84;;;9.78;65.66
71384;BME280;67558;52.166;5.004;2023-02-12T06:39:01;103978.00;;;9.78;65.39
71384;BME280;67558;52.166;5.004;2023-02-12T06:41:27;103973.50;;;9.78;65.75
71384;BME280;67558;52.166;5.004;2023-02-12T06:43:53;103975.50;;;9.76;65.77
71384;BME280;67558;52.166;5.004;2023-02-12T06:46:18;103965.03;;;9.75;65.83
71384;BME280;67558;52.166;5.004;2023-02-12T06:48:44;103973.22;;;9.73;65.69
71384;BME280;67558;52.166;5.004;2023-02-12T06:51:12;103970.53;;;9.73;65.72
71384;BME280;67558;52.166;5.004;2023-02-12T06:53:38;103982.06;;;9.74;65.75
71384;BME280;67558;52.166;5.004;2023-02-12T06:56:05;103988.88;;;9.76;65.69
71384;BME280;67558;52.166;5.004;2023-02-12T06:58:31;103983.72;;;9.75;65.78
71384;BME280;67558;52.166;5.004;2023-02-12T07:01:07;103987.78;;;9.71;65.44
71384;BME280;67558;52.166;5.004;2023-02-12T07:03:34;103980.59;;;9.71;65.68
71384;BME280;67558;52.166;5.004;2023-02-12T07:06:02;103984.94;;;9.72;65.77
71384;BME280;67558;52.166;5.004;2023-02-12T07:08:27;103984.72;;;9.74;65.68
71384;BME280;67558;52.166;5.004;2023-02-12T07:10:53;103992.59;;;9.75;65.66
71384;BME280;67558;52.166;5.004;2023-02-12T07:13:18;103985.94;;;9.71;65.73
71384;BME280;67558;52.166;5.004;2023-02-12T07:15:43;103995.25;;;9.75;65.79
71384;BME280;67558;52.166;5.004;2023-02-12T07:18:09;103996.91;;;9.76;65.74
71384;BME280;67558;52.166;5.004;2023-02-12T07:20:34;103996.25;;;9.74;65.37
71384;BME280;67558;52.166;5.004;2023-02-12T07:22:59;104000.97;;;9.72;65.57
71384;BME280;67558;52.166;5.004;2023-02-12T07:25:25;103998.56;;;9.77;65.68
71384;BME280;67558;52.166;5.004;2023-02-12T07:27:50;104004.56;;;9.79;65.77
71384;BME280;67558;52.166;5.004;2023-02-12T07:30:16;103997.38;;;9.80;65.58
71384;BME280;67558;52.166;5.004;2023-02-12T07:32:42;104012.22;;;9.82;65.48
71384;BME280;67558;52.166;5.004;2023-02-12T07:35:07;104013.06;;;9.83;65.52
71384;BME280;67558;52.166;5.004;2023-02-12T07:37:33;104013.06;;;9.83;65.57
71384;BME280;67558;52.166;5.004;2023-02-12T07:39:58;104016.56;;;9.83;65.43
71384;BME280;67558;52.166;5.004;2023-02-12T07:42:23;104024.88;;;9.89;65.31
71384;BME280;67558;52.166;5.004;2023-02-12T07:44:49;104024.69;;;9.90;65.31
71384;BME280;67558;52.166;5.004;2023-02-12T07:47:15;104019.53;;;9.89;65.45
71384;BME280;67558;52.166;5.004;2023-02-12T07:49:41;104025.53;;;9.91;65.32
71384;BME280;67558;52.166;5.004;2023-02-12T07:52:06;104020.72;;;9.86;65.42
71384;BME280;67558;52.166;5.004;2023-02-12T07:54:31;104034.19;;;9.93;65.42
71384;BME280;67558;52.166;5.004;2023-02-12T07:56:57;104025.53;;;9.91;65.37
71384;BME280;67558;52.166;5.004;2023-02-12T07:59:22;104031.50;;;9.93;65.44
71384;BME280;67558;52.166;5.004;2023-02-12T08:01:49;104030.13;;;9.97;65.31
71384;BME280;67558;52.166;5.004;2023-02-12T08:04:18;104023.97;;;9.96;65.20
71384;BME280;67558;52.166;5.004;2023-02-12T08:06:46;104028.13;;;9.99;65.33
71384;BME280;67558;52.166;5.004;2023-02-12T08:09:15;104031.44;;;10.01;65.25
71384;BME280;67558;52.166;5.004;2023-02-12T08:11:41;104031.44;;;10.01;65.08
71384;BME280;67558;52.166;5.004;2023-02-12T08:14:08;104048.13;;;10.03;65.29
71384;BME280;67558;52.166;5.004;2023-02-12T08:16:36;104020.44;;;9.96;65.09
71384;BME280;67558;52.166;5.004;2023-02-12T08:19:03;104028.94;;;9.99;65.16
71384;BME280;67558;52.166;5.004;2023-02-12T08:21:28;104035.22;;;10.07;65.08
71384;BME280;67558;52.166;5.004;2023-02-12T08:23:56;104036.88;;;10.08;65.04
71384;BME280;67558;52.166;5.004;2023-02-12T08:26:24;104046.38;;;10.10;65.01
71384;BME280;67558;52.166;5.004;2023-02-12T08:28:59;104048.41;;;10.08;65.00
71384;BME280;67558;52.166;5.004;2023-02-12T08:31:28;104048.22;;;10.10;65.00
71384;BME280;67558;52.166;5.004;2023-02-12T08:33:54;104052.56;;;10.11;65.18
71384;BME280;67558;52.166;5.004;2023-02-12T08:36:22;104055.88;;;10.13;65.05
71384;BME280;67558;52.166;5.004;2023-02-12T08:38:48;104058.38;;;10.14;64.94
71384;BME280;67558;52.166;5.004;2023-02-12T08:41:16;104060.50;;;10.19;64.86
71384;BME280;67558;52.166;5.004;2023-02-12T08:43:43;104066.69;;;10.19;64.99
71384;BME280;67558;52.166;5.004;2023-02-12T08:46:15;104061.31;;;10.19;64.86
71384;BME280;67558;52.166;5.004;2023-02-12T08:48:41;104065.03;;;10.18;65.04
71384;BME280;67558;52.166;5.004;2023-02-12T08:51:18;104065.50;;;10.22;64.86
71384;BME280;67558;52.166;5.004;2023-02-12T08:53:45;104073.34;;;10.23;64.89
71384;BME280;67558;52.166;5.004;2023-02-12T08:56:13;104057.47;;;10.22;64.64
71384;BME280;67558;52.166;5.004;2023-02-12T08:58:39;104070.97;;;10.29;64.78
71384;BME280;67558;52.166;5.004;2023-02-12T09:01:09;104080.81;;;10.28;64.71
71384;BME280;67558;52.166;5.004;2023-02-12T09:03:35;104082.78;;;10.34;64.52
71384;BME280;67558;52.166;5.004;2023-02-12T09:06:02;104077.25;;;10.36;64.37
71384;BME280;67558;52.166;5.004;2023-02-12T09:08:27;104083.25;;;10.38;64.18
71384;BME280;67558;52.166;5.004;2023-02-12T09:10:53;104084.56;;;10.42;64.25
71384;BME280;67558;52.166;5.004;2023-02-12T09:13:18;104075.22;;;10.38;64.27
71384;BME280;67558;52.166;5.004;2023-02-12T09:15:44;104083.19;;;10.46;64.04
71384;BME280;67558;52.166;5.004;2023-02-12T09:18:11;104076.34;;;10.43;64.13
71384;BME280;67558;52.166;5.004;2023-02-12T09:20:39;104075.16;;;10.46;64.19
71384;BME280;67558;52.166;5.004;2023-02-12T09:23:06;104077.09;;;10.52;64.02
71384;BME280;67558;52.166;5.004;2023-02-12T09:25:32;104076.06;;;10.53;63.90
71384;BME280;67558;52.166;5.004;2023-02-12T09:27:59;104080.41;;;10.54;63.96
71384;BME280;67558;52.166;5.004;2023-02-12T09:30:25;104075.31;;;10.59;63.90
71384;BME280;67558;52.166;5.004;2023-02-12T09:32:50;104082.34;;;10.60;63.73
71384;BME280;67558;52.166;5.004;2023-02-12T09:35:15;104090.66;;;10.65;63.46
71384;BME280;67558;52.166;5.004;2023-02-12T09:37:42;104082.63;;;10.65;63.55
71384;BME280;67558;52.166;5.004;2023-02-12T09:40:17;104085.75;;;10.69;63.34
71384;BME280;67558;52.166;5.004;2023-02-12T09:43:01;104072.16;;;10.71;63.15
71384;BME280;67558;52.166;5.004;2023-02-12T09:45:34;104084.16;;;10.75;63.23
71384;BME280;67558;52.166;5.004;2023-02-12T09:48:25;104081.13;;;10.78;63.05
71384;BME280;67558;52.166;5.004;2023-02-12T09:50:56;104076.22;;;10.81;63.33
71384;BME280;67558;52.166;5.004;2023-02-12T09:53:28;104079.53;;;10.83;62.79
71384;BME280;67558;52.166;5.004;2023-02-12T09:55:55;104088.22;;;10.85;62.86
71384;BME280;67558;52.166;5.004;2023-02-12T09:58:33;104079.38;;;10.85;62.85
71384;BME280;67558;52.166;5.004;2023-02-12T10:01:10;104082.28;;;10.90;62.73
71384;BME280;67558;52.166;5.004;2023-02-12T10:03:36;104082.94;;;10.92;62.88
71384;BME280;67558;52.166;5.004;2023-02-12T10:06:04;104081.72;;;10.95;62.64
71384;BME280;67558;52.166;5.004;2023-02-12T10:22:30;104078.66;;;11.13;61.77
71384;BME280;67558;52.166;5.004;2023-02-12T10:27:54;104071.50;;;11.20;61.85
71384;BME280;67558;52.166;5.004;2023-02-12T10:30:24;104070.50;;;11.21;61.94
71384;BME280;67558;52.166;5.004;2023-02-12T10:32:58;104068.66;;;11.21;61.98
71384;BME280;67558;52.166;5.004;2023-02-12T10:35:24;104070.75;;;11.26;61.82
71384;BME280;67558;52.166;5.004;2023-02-12T10:38:13;104078.03;;;11.32;61.84
71384;BME280;67558;52.166;5.004;2023-02-12T10:40:43;104080.53;;;11.34;61.44
71384;BME280;67558;52.166;5.004;2023-02-12T10:43:10;104082.19;;;11.35;61.44
71384;BME280;67558;52.166;5.004;2023-02-12T10:45:38;104075.81;;;11.36;61.59
71384;BME280;67558;52.166;5.004;2023-02-12T10:50:43;104076.91;;;11.41;61.33
71384;BME280;67558;52.166;5.004;2023-02-12T10:53:21;104072.81;;;11.45;60.81
71384;BME280;67558;52.166;5.004;2023-02-12T10:55:47;104069.75;;;11.48;60.72
71384;BME280;67558;52.166;5.004;2023-02-12T10:58:19;104072.88;;;11.52;60.47
71384;BME280;67558;52.166;5.004;2023-02-12T11:00:46;104071.00;;;11.53;60.53
71384;BME280;67558;52.166;5.004;2023-02-12T11:03:29;104072.69;;;11.54;60.50
71384;BME280;67558;52.166;5.004;2023-02-12T11:06:10;104072.69;;;11.54;60.42
71384;BME280;67558;52.166;5.004;2023-02-12T11:08:36;104072.94;;;11.59;60.70
71384;BME280;67558;52.166;5.004;2023-02-12T11:11:22;104070.88;;;11.61;60.54
71384;BME280;67558;52.166;5.004;2023-02-12T11:14:27;104075.25;;;11.62;60.14
71384;BME280;67558;52.166;5.004;2023-02-12T11:16:55;104066.81;;;11.65;59.99
71384;BME280;67558;52.166;5.004;2023-02-12T11:19:26;104071.16;;;11.66;60.09
71384;BME280;67558;52.166;5.004;2023-02-12T11:22:05;104059.41;;;11.67;59.99
71384;BME280;67558;52.166;5.004;2023-02-12T11:24:34;104056.31;;;11.70;60.18
71384;BME280;67558;52.166;5.004;2023-02-12T11:29:42;104060.28;;;11.74;59.84
71384;BME280;67558;52.166;5.004;2023-02-12T11:32:14;104058.63;;;11.73;59.92
71384;BME280;67558;52.166;5.004;2023-02-12T11:34:40;104058.22;;;11.76;59.82
71384;BME280;67558;52.166;5.004;2023-02-12T11:37:16;104066.91;;;11.78;59.78
71384;BME280;67558;52.166;5.004;2023-02-12T11:39:46;104060.53;;;11.79;59.78
71384;BME280;67558;52.166;5.004;2023-02-12T11:42:16;104063.66;;;11.83;59.67
71384;BME280;67558;52.166;5.004;2023-02-12T11:44:48;104056.44;;;11.83;59.63
71384;BME280;67558;52.166;5.004;2023-02-12T11:47:24;104064.50;;;11.83;59.82
71384;BME280;67558;52.166;5.004;2023-02-12T11:50:17;104054.78;;;11.82;59.08
71384;BME280;67558;52.166;5.004;2023-02-12T11:52:48;104058.91;;;11.85;59.64
71384;BME280;67558;52.166;5.004;2023-02-12T11:55:26;104052.72;;;11.84;59.44
71384;BME280;67558;52.166;5.004;2023-02-12T12:00:40;104048.81;;;11.87;59.35
71384;BME280;67558;52.166;5.004;2023-02-12T12:03:14;104050.53;;;11.88;59.41
71384;BME280;67558;52.166;5.004;2023-02-12T12:06:05;104048.81;;;11.87;58.84
71384;BME280;67558;52.166;5.004;2023-02-12T12:08:43;104046.34;;;11.85;58.82
71384;BME280;67558;52.166;5.004;2023-02-12T12:11:25;104047.66;;;11.90;58.98
71384;BME280;67558;52.166;5.004;2023-02-12T12:14:02;104042.28;;;11.90;59.08
71384;BME280;67558;52.166;5.004;2023-02-12T12:16:35;104043.75;;;11.92;58.89
71384;BME280;67558;52.166;5.004;2023-02-12T12:19:23;104044.38;;;11.94;58.88
71384;BME280;67558;52.166;5.004;2023-02-12T12:22:25;104041.72;;;11.94;58.69
71384;BME280;67558;52.166;5.004;2023-02-12T12:24:54;104039.03;;;11.94;58.78
71384;BME280;67558;52.166;5.004;2023-02-12T12:27:31;104037.16;;;11.95;58.93
71384;BME280;67558;52.166;5.004;2023-02-12T12:30:22;104032.81;;;11.94;59.01
71384;BME280;67558;52.166;5.004;2023-02-12T12:32:51;104031.97;;;11.93;58.88
71384;BME280;67558;52.166;5.004;2023-02-12T12:35:30;104026.84;;;11.92;58.83
71384;BME280;67558;52.166;5.004;2023-02-12T12:38:17;104027.66;;;11.92;59.05
71384;BME280;67558;52.166;5.004;2023-02-12T12:49:31;104021.69;;;11.97;58.96
71384;BME280;67558;52.166;5.004;2023-02-12T13:12:07;104013.47;;;11.98;58.70
71384;BME280;67558;52.166;5.004;2023-02-12T13:17:38;104001.84;;;11.91;58.40
71384;BME280;67558;52.166;5.004;2023-02-12T13:20:25;103993.34;;;11.87;58.70
71384;BME280;67558;52.166;5.004;2023-02-12T13:23:03;103999.72;;;11.86;58.79
71384;BME280;67558;52.166;5.004;2023-02-12T13:28:03;103997.03;;;11.86;58.97
71384;BME280;67558;52.166;5.004;2023-02-12T13:30:37;104004.94;;;11.88;58.69
71384;BME280;67558;52.166;5.004;2023-02-12T13:33:15;103997.84;;;11.87;58.44
71384;BME280;67558;52.166;5.004;2023-02-12T13:35:45;103988.34;;;11.84;58.46
71384;BME280;67558;52.166;5.004;2023-02-12T13:38:26;103992.91;;;11.84;58.57
71384;BME280;67558;52.166;5.004;2023-02-12T13:40:58;103999.09;;;11.84;58.36
71384;BME280;67558;52.166;5.004;2023-02-12T13:46:13;103989.41;;;11.83;58.61
71384;BME280;67558;52.166;5.004;2023-02-12T13:48:59;103977.41;;;11.79;58.45
71384;BME280;67558;52.166;5.004;2023-02-12T13:51:41;103985.03;;;11.82;58.57
71384;BME280;67558;52.166;5.004;2023-02-12T13:59:40;103978.03;;;11.81;58.32
71384;BME280;67558;52.166;5.004;2023-02-12T14:07:51;103977.59;;;11.78;58.75
71384;BME280;67558;52.166;5.004;2023-02-12T14:10:38;103978.63;;;11.77;58.31
71384;BME280;67558;52.166;5.004;2023-02-12T14:13:12;103969.09;;;11.74;58.29
71384;BME280;67558;52.166;5.004;2023-02-12T14:15:44;103968.47;;;11.72;58.54
71384;BME280;67558;52.166;5.004;2023-02-12T14:23:46;103962.91;;;11.74;58.46
71384;BME280;67558;52.166;5.004;2023-02-12T14:26:22;103957.31;;;11.68;58.53
71384;BME280;67558;52.166;5.004;2023-02-12T14:29:14;103959.59;;;11.72;58.54
71384;BME280;67558;52.166;5.004;2023-02-12T14:31:35;103955.63;;;11.67;58.86
71384;BME280;67558;52.166;5.004;2023-02-12T14:36:49;103955.44;;;11.69;58.84
71384;BME280;67558;52.166;5.004;2023-02-12T14:39:33;103957.94;;;11.71;59.13
71384;BME280;67558;52.166;5.004;2023-02-12T14:44:42;103947.56;;;11.61;58.98
71384;BME280;67558;52.166;5.004;2023-02-12T14:47:13;103957.06;;;11.63;58.87
71384;BME280;67558;52.166;5.004;2023-02-12T14:49:45;103946.91;;;11.59;58.92
71384;BME280;67558;52.166;5.004;2023-02-12T14:52:17;103928.28;;;11.51;58.66
71384;BME280;67558;52.166;5.004;2023-02-12T14:54:51;103951.06;;;11.61;58.80
71384;BME280;67558;52.166;5.004;2023-02-12T14:57:25;103951.28;;;11.60;58.74
71384;BME280;67558;52.166;5.004;2023-02-12T15:02:45;103947.97;;;11.58;58.97
71384;BME280;67558;52.166;5.004;2023-02-12T15:05:18;103941.31;;;11.54;58.86
71384;BME280;67558;52.166;5.004;2023-02-12T15:07:51;103950.00;;;11.56;58.68
71384;BME280;67558;52.166;5.004;2023-02-12T15:10:22;103943.19;;;11.53;58.76
71384;BME280;67558;52.166;5.004;2023-02-12T15:13:27;103946.88;;;11.52;58.69
71384;BME280;67558;52.166;5.004;2023-02-12T15:16:08;103937.38;;;11.50;58.88
71384;BME280;67558;52.166;5.004;2023-02-12T15:18:53;103945.41;;;11.50;58.94